Terminal Aerodrome Forecast
Issued by NWS

Home | Current Version | Previous Version | Text Only | Print | Product List | Glossary On
Versions: 1 2 3 4 5 6 7 8 9 10 11 12 13 14 15 16
000
FTUS46 KMTR 232334
TAFOAK
TAF
KOAK 232334Z 2400/2506 30017KT P6SM FEW009
     FM240400 31009KT P6SM FEW009
     FM240600 31007KT P6SM SCT009
     FM240800 30006KT P6SM OVC008
     FM241700 29006KT P6SM BKN011
     FM241800 29007KT P6SM FEW011 SCT180
     FM242000 30013KT P6SM FEW012 BKN180
     FM250400 29009KT P6SM SCT012=

USA.gov is the U.S. government's official web portal to all federal, state and local government web resources and services.